Rock Springs, Wisconsin
Current Conditions -  °F | °C
As of 9:55 AM on Friday 28 Nov 2014 (Local Time) from KC35 Reporting Station
Overcast Overcast  
Wind Chill: 12°   Ceiling: 10000
Heat Index: 20°   Visibility: 10mi
Dew Point: 11°   Wind: 6mph
Humidity: 71%   Direction: 160°SSE
Pressure: 30.08"   Gusts: NA
Location:  43.49°N, 89.92°W
Report Text: KC35 281555Z AUTO 16005KT 10SM OVC100 M07/M11 A3008 RMK AO2 T10691114
Loading
Personal Weather Stations






























Interactive Weather Map New forecast layout! Learn more

10-Day Weather Forecast

Advertisements
Track Severe Weather on mobile